sensor_id;sensor_type;location;lat;lon;timestamp;P1;durP1;ratioP1;P2;durP2;ratioP2
13683;SDS011;6914;53.552;9.908;2023-05-01T00:00:38;13.60;;;8.53;;
13683;SDS011;6914;53.552;9.908;2023-05-01T00:03:05;12.80;;;8.40;;
13683;SDS011;6914;53.552;9.908;2023-05-01T00:05:35;19.10;;;8.77;;
13683;SDS011;6914;53.552;9.908;2023-05-01T00:08:01;16.33;;;8.60;;
13683;SDS011;6914;53.552;9.908;2023-05-01T00:10:29;14.90;;;8.47;;
13683;SDS011;6914;53.552;9.908;2023-05-01T00:12:56;17.43;;;8.33;;
13683;SDS011;6914;53.552;9.908;2023-05-01T00:15:23;12.77;;;8.53;;
13683;SDS011;6914;53.552;9.908;2023-05-01T00:17:51;10.67;;;8.37;;
13683;SDS011;6914;53.552;9.908;2023-05-01T00:20:18;15.07;;;8.40;;
13683;SDS011;6914;53.552;9.908;2023-05-01T00:22:45;17.73;;;7.87;;
13683;SDS011;6914;53.552;9.908;2023-05-01T00:25:12;16.53;;;8.17;;
13683;SDS011;6914;53.552;9.908;2023-05-01T00:27:39;12.30;;;7.87;;
13683;SDS011;6914;53.552;9.908;2023-05-01T00:30:06;10.20;;;6.50;;
13683;SDS011;6914;53.552;9.908;2023-05-01T00:32:40;13.83;;;7.63;;
13683;SDS011;6914;53.552;9.908;2023-05-01T00:35:10;15.53;;;7.63;;
13683;SDS011;6914;53.552;9.908;2023-05-01T00:37:37;23.37;;;7.80;;
13683;SDS011;6914;53.552;9.908;2023-05-01T00:40:04;12.20;;;6.80;;
13683;SDS011;6914;53.552;9.908;2023-05-01T00:42:35;9.87;;;7.33;;
13683;SDS011;6914;53.552;9.908;2023-05-01T00:45:03;15.83;;;7.40;;
13683;SDS011;6914;53.552;9.908;2023-05-01T00:47:36;10.33;;;6.50;;
13683;SDS011;6914;53.552;9.908;2023-05-01T00:50:10;9.73;;;7.53;;
13683;SDS011;6914;53.552;9.908;2023-05-01T00:52:37;11.90;;;7.20;;
13683;SDS011;6914;53.552;9.908;2023-05-01T00:55:05;8.33;;;7.43;;
13683;SDS011;6914;53.552;9.908;2023-05-01T00:57:35;18.87;;;7.30;;
13683;SDS011;6914;53.552;9.908;2023-05-01T01:00:02;11.80;;;6.93;;
13683;SDS011;6914;53.552;9.908;2023-05-01T01:02:30;11.50;;;7.00;;
13683;SDS011;6914;53.552;9.908;2023-05-01T01:04:57;12.40;;;7.37;;
13683;SDS011;6914;53.552;9.908;2023-05-01T01:07:27;12.53;;;7.60;;
13683;SDS011;6914;53.552;9.908;2023-05-01T01:10:03;9.57;;;7.40;;
13683;SDS011;6914;53.552;9.908;2023-05-01T01:12:38;8.10;;;6.97;;
13683;SDS011;6914;53.552;9.908;2023-05-01T01:15:17;24.90;;;7.60;;
13683;SDS011;6914;53.552;9.908;2023-05-01T01:17:50;14.70;;;7.30;;
13683;SDS011;6914;53.552;9.908;2023-05-01T01:20:33;11.30;;;7.33;;
13683;SDS011;6914;53.552;9.908;2023-05-01T01:23:17;14.07;;;6.73;;
13683;SDS011;6914;53.552;9.908;2023-05-01T01:29:09;10.97;;;7.23;;
13683;SDS011;6914;53.552;9.908;2023-05-01T01:31:56;10.53;;;7.60;;
13683;SDS011;6914;53.552;9.908;2023-05-01T01:34:33;8.57;;;7.47;;
13683;SDS011;6914;53.552;9.908;2023-05-01T01:37:03;8.17;;;7.20;;
13683;SDS011;6914;53.552;9.908;2023-05-01T01:39:48;8.17;;;6.47;;
13683;SDS011;6914;53.552;9.908;2023-05-01T01:42:19;31.40;;;7.10;;
13683;SDS011;6914;53.552;9.908;2023-05-01T01:44:51;8.20;;;6.67;;
13683;SDS011;6914;53.552;9.908;2023-05-01T01:47:19;9.70;;;6.80;;
13683;SDS011;6914;53.552;9.908;2023-05-01T01:49:53;9.10;;;6.70;;
13683;SDS011;6914;53.552;9.908;2023-05-01T01:52:21;7.70;;;6.63;;
13683;SDS011;6914;53.552;9.908;2023-05-01T01:54:50;13.40;;;6.80;;
13683;SDS011;6914;53.552;9.908;2023-05-01T01:57:20;12.03;;;6.97;;
13683;SDS011;6914;53.552;9.908;2023-05-01T01:59:49;17.60;;;7.07;;
13683;SDS011;6914;53.552;9.908;2023-05-01T02:02:17;7.80;;;6.37;;
13683;SDS011;6914;53.552;9.908;2023-05-01T02:04:45;6.97;;;6.30;;
13683;SDS011;6914;53.552;9.908;2023-05-01T02:07:16;12.60;;;6.40;;
13683;SDS011;6914;53.552;9.908;2023-05-01T02:09:45;6.57;;;5.97;;
13683;SDS011;6914;53.552;9.908;2023-05-01T02:12:13;13.47;;;5.27;;
13683;SDS011;6914;53.552;9.908;2023-05-01T02:14:42;8.73;;;6.60;;
13683;SDS011;6914;53.552;9.908;2023-05-01T02:17:14;7.40;;;6.80;;
13683;SDS011;6914;53.552;9.908;2023-05-01T02:19:42;5.70;;;5.20;;
13683;SDS011;6914;53.552;9.908;2023-05-01T02:22:10;11.20;;;6.57;;
13683;SDS011;6914;53.552;9.908;2023-05-01T02:24:42;8.27;;;6.90;;
13683;SDS011;6914;53.552;9.908;2023-05-01T02:27:14;6.50;;;5.90;;
13683;SDS011;6914;53.552;9.908;2023-05-01T02:29:42;17.40;;;7.20;;
13683;SDS011;6914;53.552;9.908;2023-05-01T02:32:09;7.67;;;6.07;;
13683;SDS011;6914;53.552;9.908;2023-05-01T02:34:38;9.73;;;6.43;;
13683;SDS011;6914;53.552;9.908;2023-05-01T02:37:06;10.00;;;6.20;;
13683;SDS011;6914;53.552;9.908;2023-05-01T02:42:05;11.63;;;6.03;;
13683;SDS011;6914;53.552;9.908;2023-05-01T02:44:37;10.70;;;7.00;;
13683;SDS011;6914;53.552;9.908;2023-05-01T02:47:06;13.23;;;5.90;;
13683;SDS011;6914;53.552;9.908;2023-05-01T02:49:37;7.33;;;5.43;;
13683;SDS011;6914;53.552;9.908;2023-05-01T02:52:06;10.73;;;5.43;;
13683;SDS011;6914;53.552;9.908;2023-05-01T02:54:33;15.03;;;6.90;;
13683;SDS011;6914;53.552;9.908;2023-05-01T02:57:04;10.53;;;5.33;;
13683;SDS011;6914;53.552;9.908;2023-05-01T02:59:30;14.83;;;7.03;;
13683;SDS011;6914;53.552;9.908;2023-05-01T03:01:57;19.17;;;6.80;;
13683;SDS011;6914;53.552;9.908;2023-05-01T03:04:24;10.30;;;5.70;;
13683;SDS011;6914;53.552;9.908;2023-05-01T03:06:52;10.50;;;6.03;;
13683;SDS011;6914;53.552;9.908;2023-05-01T03:09:19;12.50;;;6.73;;
13683;SDS011;6914;53.552;9.908;2023-05-01T03:11:46;10.93;;;7.03;;
13683;SDS011;6914;53.552;9.908;2023-05-01T03:14:14;7.33;;;6.60;;
13683;SDS011;6914;53.552;9.908;2023-05-01T03:16:41;7.60;;;6.00;;
13683;SDS011;6914;53.552;9.908;2023-05-01T03:19:10;21.10;;;6.90;;
13683;SDS011;6914;53.552;9.908;2023-05-01T03:21:41;9.37;;;5.57;;
13683;SDS011;6914;53.552;9.908;2023-05-01T03:24:14;11.17;;;6.10;;
13683;SDS011;6914;53.552;9.908;2023-05-01T03:26:41;5.40;;;4.90;;
13683;SDS011;6914;53.552;9.908;2023-05-01T03:29:08;13.30;;;6.33;;
13683;SDS011;6914;53.552;9.908;2023-05-01T03:31:39;9.37;;;5.90;;
13683;SDS011;6914;53.552;9.908;2023-05-01T03:34:06;17.90;;;7.13;;
13683;SDS011;6914;53.552;9.908;2023-05-01T03:36:33;8.37;;;6.27;;
13683;SDS011;6914;53.552;9.908;2023-05-01T03:39:01;8.60;;;6.17;;
13683;SDS011;6914;53.552;9.908;2023-05-01T03:41:28;14.73;;;6.87;;
13683;SDS011;6914;53.552;9.908;2023-05-01T03:43:55;8.63;;;5.93;;
13683;SDS011;6914;53.552;9.908;2023-05-01T03:46:22;11.17;;;6.80;;
13683;SDS011;6914;53.552;9.908;2023-05-01T03:48:50;8.50;;;5.53;;
13683;SDS011;6914;53.552;9.908;2023-05-01T03:51:17;13.37;;;6.03;;
13683;SDS011;6914;53.552;9.908;2023-05-01T03:53:44;8.53;;;5.53;;
13683;SDS011;6914;53.552;9.908;2023-05-01T03:56:11;6.83;;;5.03;;
13683;SDS011;6914;53.552;9.908;2023-05-01T03:58:41;12.90;;;5.60;;
13683;SDS011;6914;53.552;9.908;2023-05-01T04:01:07;13.20;;;5.90;;
13683;SDS011;6914;53.552;9.908;2023-05-01T04:03:39;15.73;;;6.50;;
13683;SDS011;6914;53.552;9.908;2023-05-01T04:06:08;7.53;;;5.80;;
13683;SDS011;6914;53.552;9.908;2023-05-01T04:08:41;7.30;;;6.60;;
13683;SDS011;6914;53.552;9.908;2023-05-01T04:11:07;29.30;;;6.77;;
13683;SDS011;6914;53.552;9.908;2023-05-01T04:13:36;9.80;;;5.80;;
13683;SDS011;6914;53.552;9.908;2023-05-01T04:16:03;9.17;;;6.20;;
13683;SDS011;6914;53.552;9.908;2023-05-01T04:18:31;7.50;;;6.23;;
13683;SDS011;6914;53.552;9.908;2023-05-01T04:20:57;5.87;;;5.53;;
13683;SDS011;6914;53.552;9.908;2023-05-01T04:23:26;11.43;;;6.63;;
13683;SDS011;6914;53.552;9.908;2023-05-01T04:25:52;7.87;;;5.77;;
13683;SDS011;6914;53.552;9.908;2023-05-01T04:28:21;12.80;;;5.33;;
13683;SDS011;6914;53.552;9.908;2023-05-01T04:30:48;12.93;;;6.00;;
13683;SDS011;6914;53.552;9.908;2023-05-01T04:33:14;6.10;;;5.53;;
13683;SDS011;6914;53.552;9.908;2023-05-01T04:35:41;11.90;;;6.70;;
13683;SDS011;6914;53.552;9.908;2023-05-01T04:38:09;6.20;;;5.70;;
13683;SDS011;6914;53.552;9.908;2023-05-01T04:40:37;16.33;;;6.40;;
13683;SDS011;6914;53.552;9.908;2023-05-01T04:43:04;5.90;;;5.10;;
13683;SDS011;6914;53.552;9.908;2023-05-01T04:45:31;7.27;;;5.17;;
13683;SDS011;6914;53.552;9.908;2023-05-01T04:47:57;16.63;;;5.47;;
13683;SDS011;6914;53.552;9.908;2023-05-01T04:50:24;9.50;;;4.80;;
13683;SDS011;6914;53.552;9.908;2023-05-01T04:52:51;7.00;;;5.80;;
13683;SDS011;6914;53.552;9.908;2023-05-01T04:55:18;9.80;;;6.30;;
13683;SDS011;6914;53.552;9.908;2023-05-01T04:57:46;6.13;;;5.50;;
13683;SDS011;6914;53.552;9.908;2023-05-01T05:00:16;12.37;;;6.47;;
13683;SDS011;6914;53.552;9.908;2023-05-01T05:02:45;5.67;;;5.17;;
13683;SDS011;6914;53.552;9.908;2023-05-01T05:05:11;4.90;;;4.43;;
13683;SDS011;6914;53.552;9.908;2023-05-01T05:07:41;6.67;;;5.60;;
13683;SDS011;6914;53.552;9.908;2023-05-01T05:10:08;11.97;;;5.30;;
13683;SDS011;6914;53.552;9.908;2023-05-01T05:12:35;9.37;;;5.73;;
13683;SDS011;6914;53.552;9.908;2023-05-01T05:15:03;9.73;;;5.67;;
13683;SDS011;6914;53.552;9.908;2023-05-01T05:17:31;6.20;;;5.60;;
13683;SDS011;6914;53.552;9.908;2023-05-01T05:19:57;8.60;;;6.17;;
13683;SDS011;6914;53.552;9.908;2023-05-01T05:22:24;7.93;;;5.60;;
13683;SDS011;6914;53.552;9.908;2023-05-01T05:24:52;11.90;;;6.37;;
13683;SDS011;6914;53.552;9.908;2023-05-01T05:27:19;6.70;;;5.57;;
13683;SDS011;6914;53.552;9.908;2023-05-01T05:29:47;8.53;;;5.00;;
13683;SDS011;6914;53.552;9.908;2023-05-01T05:32:18;6.60;;;6.00;;
13683;SDS011;6914;53.552;9.908;2023-05-01T05:34:44;7.13;;;5.40;;
13683;SDS011;6914;53.552;9.908;2023-05-01T05:37:12;6.30;;;5.77;;
13683;SDS011;6914;53.552;9.908;2023-05-01T05:39:39;11.50;;;5.77;;
13683;SDS011;6914;53.552;9.908;2023-05-01T05:42:06;6.23;;;5.30;;
13683;SDS011;6914;53.552;9.908;2023-05-01T05:44:33;7.60;;;5.37;;
13683;SDS011;6914;53.552;9.908;2023-05-01T05:47:00;9.70;;;5.73;;
13683;SDS011;6914;53.552;9.908;2023-05-01T05:49:28;12.23;;;6.33;;
13683;SDS011;6914;53.552;9.908;2023-05-01T05:51:55;10.33;;;5.23;;
13683;SDS011;6914;53.552;9.908;2023-05-01T05:54:22;5.23;;;4.73;;
13683;SDS011;6914;53.552;9.908;2023-05-01T05:56:49;8.17;;;5.80;;
13683;SDS011;6914;53.552;9.908;2023-05-01T05:59:18;10.13;;;6.00;;
13683;SDS011;6914;53.552;9.908;2023-05-01T06:01:44;14.80;;;6.33;;
13683;SDS011;6914;53.552;9.908;2023-05-01T06:04:11;8.00;;;5.20;;
13683;SDS011;6914;53.552;9.908;2023-05-01T06:06:45;8.37;;;5.80;;
13683;SDS011;6914;53.552;9.908;2023-05-01T06:09:13;9.73;;;5.20;;
13683;SDS011;6914;53.552;9.908;2023-05-01T06:11:44;7.73;;;5.60;;
13683;SDS011;6914;53.552;9.908;2023-05-01T06:14:11;9.03;;;5.43;;
13683;SDS011;6914;53.552;9.908;2023-05-01T06:16:38;6.63;;;5.10;;
13683;SDS011;6914;53.552;9.908;2023-05-01T06:19:05;19.37;;;5.70;;
13683;SDS011;6914;53.552;9.908;2023-05-01T06:21:34;13.00;;;5.80;;
13683;SDS011;6914;53.552;9.908;2023-05-01T06:24:02;10.07;;;5.57;;
13683;SDS011;6914;53.552;9.908;2023-05-01T06:26:30;8.97;;;5.60;;
13683;SDS011;6914;53.552;9.908;2023-05-01T06:28:57;7.40;;;5.40;;
13683;SDS011;6914;53.552;9.908;2023-05-01T06:31:23;7.00;;;6.30;;
13683;SDS011;6914;53.552;9.908;2023-05-01T06:33:51;7.33;;;5.50;;
13683;SDS011;6914;53.552;9.908;2023-05-01T06:36:17;12.40;;;5.53;;
13683;SDS011;6914;53.552;9.908;2023-05-01T06:38:44;5.40;;;4.97;;
13683;SDS011;6914;53.552;9.908;2023-05-01T06:41:14;9.10;;;5.90;;
13683;SDS011;6914;53.552;9.908;2023-05-01T06:43:43;10.67;;;5.67;;
13683;SDS011;6914;53.552;9.908;2023-05-01T06:46:10;15.13;;;5.53;;
13683;SDS011;6914;53.552;9.908;2023-05-01T06:48:37;8.03;;;4.70;;
13683;SDS011;6914;53.552;9.908;2023-05-01T06:51:04;7.27;;;5.10;;
13683;SDS011;6914;53.552;9.908;2023-05-01T06:53:31;8.03;;;5.70;;
13683;SDS011;6914;53.552;9.908;2023-05-01T06:55:57;4.83;;;4.27;;
13683;SDS011;6914;53.552;9.908;2023-05-01T06:58:26;6.10;;;4.93;;
13683;SDS011;6914;53.552;9.908;2023-05-01T07:00:52;6.37;;;5.40;;
13683;SDS011;6914;53.552;9.908;2023-05-01T07:03:19;9.60;;;5.00;;
13683;SDS011;6914;53.552;9.908;2023-05-01T07:05:47;6.30;;;5.13;;
13683;SDS011;6914;53.552;9.908;2023-05-01T07:08:14;7.50;;;6.17;;
13683;SDS011;6914;53.552;9.908;2023-05-01T07:10:43;11.23;;;5.50;;
13683;SDS011;6914;53.552;9.908;2023-05-01T07:13:10;4.80;;;4.23;;
13683;SDS011;6914;53.552;9.908;2023-05-01T07:15:38;13.07;;;5.30;;
13683;SDS011;6914;53.552;9.908;2023-05-01T07:18:05;5.20;;;4.90;;
13683;SDS011;6914;53.552;9.908;2023-05-01T07:20:32;10.00;;;6.00;;
13683;SDS011;6914;53.552;9.908;2023-05-01T07:22:59;10.07;;;6.10;;
13683;SDS011;6914;53.552;9.908;2023-05-01T07:25:28;6.70;;;4.80;;
13683;SDS011;6914;53.552;9.908;2023-05-01T07:27:55;12.83;;;5.13;;
13683;SDS011;6914;53.552;9.908;2023-05-01T07:30:22;10.60;;;5.50;;
13683;SDS011;6914;53.552;9.908;2023-05-01T07:32:50;15.73;;;5.57;;
13683;SDS011;6914;53.552;9.908;2023-05-01T07:35:19;10.63;;;4.60;;
13683;SDS011;6914;53.552;9.908;2023-05-01T07:37:46;5.73;;;4.43;;
13683;SDS011;6914;53.552;9.908;2023-05-01T07:40:15;9.70;;;5.20;;
13683;SDS011;6914;53.552;9.908;2023-05-01T07:42:44;5.57;;;4.33;;
13683;SDS011;6914;53.552;9.908;2023-05-01T07:45:11;11.20;;;5.00;;
13683;SDS011;6914;53.552;9.908;2023-05-01T07:47:40;8.93;;;4.40;;
13683;SDS011;6914;53.552;9.908;2023-05-01T07:50:10;5.07;;;4.67;;
13683;SDS011;6914;53.552;9.908;2023-05-01T07:52:37;6.07;;;5.10;;
13683;SDS011;6914;53.552;9.908;2023-05-01T07:55:05;12.50;;;4.97;;
13683;SDS011;6914;53.552;9.908;2023-05-01T07:57:33;7.17;;;4.53;;
13683;SDS011;6914;53.552;9.908;2023-05-01T08:00:00;10.07;;;5.33;;
13683;SDS011;6914;53.552;9.908;2023-05-01T08:02:28;8.30;;;4.70;;
13683;SDS011;6914;53.552;9.908;2023-05-01T08:04:55;7.20;;;5.10;;
13683;SDS011;6914;53.552;9.908;2023-05-01T08:07:23;4.70;;;4.23;;
13683;SDS011;6914;53.552;9.908;2023-05-01T08:09:50;6.10;;;4.30;;
13683;SDS011;6914;53.552;9.908;2023-05-01T08:12:21;10.57;;;5.33;;
13683;SDS011;6914;53.552;9.908;2023-05-01T08:14:47;5.87;;;4.97;;
13683;SDS011;6914;53.552;9.908;2023-05-01T08:17:15;7.50;;;5.77;;
13683;SDS011;6914;53.552;9.908;2023-05-01T08:19:44;6.00;;;4.50;;
13683;SDS011;6914;53.552;9.908;2023-05-01T08:22:11;9.63;;;5.30;;
13683;SDS011;6914;53.552;9.908;2023-05-01T08:24:39;17.67;;;5.23;;
13683;SDS011;6914;53.552;9.908;2023-05-01T08:27:06;5.40;;;4.90;;
13683;SDS011;6914;53.552;9.908;2023-05-01T08:29:34;9.90;;;5.00;;
13683;SDS011;6914;53.552;9.908;2023-05-01T08:32:01;6.20;;;5.60;;
13683;SDS011;6914;53.552;9.908;2023-05-01T08:34:28;5.00;;;4.20;;
13683;SDS011;6914;53.552;9.908;2023-05-01T08:36:55;6.23;;;5.27;;
13683;SDS011;6914;53.552;9.908;2023-05-01T08:39:22;6.27;;;4.80;;
13683;SDS011;6914;53.552;9.908;2023-05-01T08:41:50;5.00;;;4.47;;
13683;SDS011;6914;53.552;9.908;2023-05-01T08:44:18;9.07;;;5.00;;
13683;SDS011;6914;53.552;9.908;2023-05-01T08:46:46;9.60;;;4.20;;
13683;SDS011;6914;53.552;9.908;2023-05-01T08:49:14;9.63;;;4.77;;
13683;SDS011;6914;53.552;9.908;2023-05-01T08:51:45;8.40;;;4.83;;
13683;SDS011;6914;53.552;9.908;2023-05-01T08:54:12;8.83;;;5.33;;
13683;SDS011;6914;53.552;9.908;2023-05-01T08:56:46;4.90;;;4.20;;
13683;SDS011;6914;53.552;9.908;2023-05-01T08:59:15;7.60;;;5.10;;
13683;SDS011;6914;53.552;9.908;2023-05-01T09:01:49;5.50;;;4.90;;
13683;SDS011;6914;53.552;9.908;2023-05-01T09:04:20;7.47;;;4.20;;
13683;SDS011;6914;53.552;9.908;2023-05-01T09:06:47;6.60;;;4.20;;
13683;SDS011;6914;53.552;9.908;2023-05-01T09:09:15;7.93;;;5.00;;
13683;SDS011;6914;53.552;9.908;2023-05-01T09:11:45;6.00;;;4.30;;
13683;SDS011;6914;53.552;9.908;2023-05-01T09:14:12;4.50;;;4.17;;
13683;SDS011;6914;53.552;9.908;2023-05-01T09:16:43;8.70;;;4.40;;
13683;SDS011;6914;53.552;9.908;2023-05-01T09:19:10;13.10;;;4.70;;
13683;SDS011;6914;53.552;9.908;2023-05-01T09:21:37;8.23;;;4.17;;
13683;SDS011;6914;53.552;9.908;2023-05-01T09:24:04;4.90;;;4.03;;
13683;SDS011;6914;53.552;9.908;2023-05-01T09:26:31;8.77;;;4.33;;
13683;SDS011;6914;53.552;9.908;2023-05-01T09:29:00;3.47;;;3.17;;
13683;SDS011;6914;53.552;9.908;2023-05-01T09:31:28;6.80;;;3.60;;
13683;SDS011;6914;53.552;9.908;2023-05-01T09:33:58;5.83;;;4.30;;
13683;SDS011;6914;53.552;9.908;2023-05-01T09:36:27;4.60;;;4.20;;
13683;SDS011;6914;53.552;9.908;2023-05-01T09:38:55;10.93;;;4.20;;
13683;SDS011;6914;53.552;9.908;2023-05-01T09:41:22;9.80;;;4.60;;
13683;SDS011;6914;53.552;9.908;2023-05-01T09:43:49;6.20;;;3.33;;
13683;SDS011;6914;53.552;9.908;2023-05-01T09:46:17;6.30;;;3.60;;
13683;SDS011;6914;53.552;9.908;2023-05-01T09:48:52;4.17;;;3.77;;
13683;SDS011;6914;53.552;9.908;2023-05-01T09:51:25;4.07;;;3.50;;
13683;SDS011;6914;53.552;9.908;2023-05-01T09:53:53;8.23;;;3.30;;
13683;SDS011;6914;53.552;9.908;2023-05-01T09:56:21;8.70;;;3.97;;
13683;SDS011;6914;53.552;9.908;2023-05-01T09:58:51;8.73;;;3.53;;
13683;SDS011;6914;53.552;9.908;2023-05-01T10:04:05;4.53;;;3.13;;
13683;SDS011;6914;53.552;9.908;2023-05-01T10:06:34;10.80;;;4.10;;
13683;SDS011;6914;53.552;9.908;2023-05-01T10:09:01;3.30;;;3.00;;
13683;SDS011;6914;53.552;9.908;2023-05-01T10:11:30;4.03;;;3.53;;
13683;SDS011;6914;53.552;9.908;2023-05-01T10:14:13;7.37;;;3.67;;
13683;SDS011;6914;53.552;9.908;2023-05-01T10:16:40;7.60;;;3.60;;
13683;SDS011;6914;53.552;9.908;2023-05-01T10:19:07;8.30;;;3.77;;
13683;SDS011;6914;53.552;9.908;2023-05-01T10:21:36;10.00;;;3.13;;
13683;SDS011;6914;53.552;9.908;2023-05-01T10:24:03;5.17;;;3.80;;
13683;SDS011;6914;53.552;9.908;2023-05-01T10:26:34;4.37;;;2.53;;
13683;SDS011;6914;53.552;9.908;2023-05-01T10:29:01;4.67;;;3.67;;
13683;SDS011;6914;53.552;9.908;2023-05-01T10:31:29;2.83;;;2.60;;
13683;SDS011;6914;53.552;9.908;2023-05-01T10:33:56;6.20;;;3.33;;
13683;SDS011;6914;53.552;9.908;2023-05-01T10:36:25;12.90;;;3.40;;
13683;SDS011;6914;53.552;9.908;2023-05-01T10:38:59;3.30;;;2.93;;
13683;SDS011;6914;53.552;9.908;2023-05-01T10:44:28;3.40;;;3.10;;
13683;SDS011;6914;53.552;9.908;2023-05-01T10:46:56;5.30;;;2.70;;
13683;SDS011;6914;53.552;9.908;2023-05-01T10:49:23;2.73;;;2.50;;
13683;SDS011;6914;53.552;9.908;2023-05-01T10:51:59;4.53;;;2.93;;
13683;SDS011;6914;53.552;9.908;2023-05-01T10:54:29;6.17;;;2.97;;
13683;SDS011;6914;53.552;9.908;2023-05-01T10:56:57;6.50;;;3.37;;
13683;SDS011;6914;53.552;9.908;2023-05-01T10:59:25;7.70;;;2.43;;
13683;SDS011;6914;53.552;9.908;2023-05-01T11:01:52;3.20;;;2.90;;
13683;SDS011;6914;53.552;9.908;2023-05-01T11:07:16;3.57;;;2.63;;
13683;SDS011;6914;53.552;9.908;2023-05-01T11:09:47;3.23;;;2.83;;
13683;SDS011;6914;53.552;9.908;2023-05-01T11:15:24;2.90;;;2.70;;
13683;SDS011;6914;53.552;9.908;2023-05-01T11:17:52;7.10;;;2.90;;
13683;SDS011;6914;53.552;9.908;2023-05-01T11:23:18;3.03;;;2.80;;
13683;SDS011;6914;53.552;9.908;2023-05-01T11:25:57;5.20;;;2.40;;
13683;SDS011;6914;53.552;9.908;2023-05-01T11:28:27;3.40;;;2.63;;
13683;SDS011;6914;53.552;9.908;2023-05-01T11:30:56;2.43;;;1.97;;
13683;SDS011;6914;53.552;9.908;2023-05-01T11:33:23;3.10;;;2.43;;
13683;SDS011;6914;53.552;9.908;2023-05-01T11:35:57;6.63;;;3.33;;
13683;SDS011;6914;53.552;9.908;2023-05-01T11:38:29;5.40;;;3.30;;
13683;SDS011;6914;53.552;9.908;2023-05-01T11:41:00;3.50;;;2.23;;
13683;SDS011;6914;53.552;9.908;2023-05-01T11:43:28;4.30;;;2.37;;
13683;SDS011;6914;53.552;9.908;2023-05-01T11:45:56;3.23;;;2.33;;
13683;SDS011;6914;53.552;9.908;2023-05-01T11:48:28;4.67;;;2.43;;
13683;SDS011;6914;53.552;9.908;2023-05-01T11:50:55;4.10;;;2.67;;
13683;SDS011;6914;53.552;9.908;2023-05-01T11:53:22;5.23;;;2.17;;
13683;SDS011;6914;53.552;9.908;2023-05-01T11:55:49;5.57;;;2.83;;
13683;SDS011;6914;53.552;9.908;2023-05-01T11:58:18;2.17;;;1.80;;
13683;SDS011;6914;53.552;9.908;2023-05-01T12:00:56;3.10;;;2.30;;
13683;SDS011;6914;53.552;9.908;2023-05-01T12:03:23;6.70;;;2.63;;
13683;SDS011;6914;53.552;9.908;2023-05-01T12:05:50;3.10;;;2.03;;
13683;SDS011;6914;53.552;9.908;2023-05-01T12:08:18;5.10;;;2.80;;
13683;SDS011;6914;53.552;9.908;2023-05-01T12:10:50;2.47;;;2.27;;
13683;SDS011;6914;53.552;9.908;2023-05-01T12:13:24;4.27;;;2.40;;
13683;SDS011;6914;53.552;9.908;2023-05-01T12:15:51;3.40;;;2.23;;
13683;SDS011;6914;53.552;9.908;2023-05-01T12:18:22;2.47;;;2.27;;
13683;SDS011;6914;53.552;9.908;2023-05-01T12:20:50;4.07;;;2.80;;
13683;SDS011;6914;53.552;9.908;2023-05-01T12:23:28;2.33;;;2.20;;
13683;SDS011;6914;53.552;9.908;2023-05-01T12:25:56;2.73;;;2.50;;
13683;SDS011;6914;53.552;9.908;2023-05-01T12:28:24;2.13;;;2.03;;
13683;SDS011;6914;53.552;9.908;2023-05-01T12:30:51;11.13;;;2.53;;
13683;SDS011;6914;53.552;9.908;2023-05-01T12:33:21;2.37;;;2.03;;
13683;SDS011;6914;53.552;9.908;2023-05-01T12:35:48;6.53;;;2.17;;
13683;SDS011;6914;53.552;9.908;2023-05-01T12:38:16;2.37;;;2.10;;
13683;SDS011;6914;53.552;9.908;2023-05-01T12:40:49;2.60;;;2.20;;
13683;SDS011;6914;53.552;9.908;2023-05-01T12:43:20;2.40;;;2.20;;
13683;SDS011;6914;53.552;9.908;2023-05-01T12:45:56;2.87;;;2.43;;
13683;SDS011;6914;53.552;9.908;2023-05-01T12:48:23;2.53;;;2.13;;
13683;SDS011;6914;53.552;9.908;2023-05-01T12:50:50;4.53;;;2.07;;
13683;SDS011;6914;53.552;9.908;2023-05-01T12:53:23;2.53;;;1.80;;
13683;SDS011;6914;53.552;9.908;2023-05-01T12:55:51;3.97;;;2.37;;
13683;SDS011;6914;53.552;9.908;2023-05-01T12:58:21;8.80;;;1.90;;
13683;SDS011;6914;53.552;9.908;2023-05-01T13:00:49;4.40;;;2.03;;
13683;SDS011;6914;53.552;9.908;2023-05-01T13:03:21;2.90;;;2.57;;
13683;SDS011;6914;53.552;9.908;2023-05-01T13:05:50;1.70;;;1.60;;
13683;SDS011;6914;53.552;9.908;2023-05-01T13:08:24;3.47;;;2.90;;
13683;SDS011;6914;53.552;9.908;2023-05-01T13:10:52;4.20;;;2.47;;
13683;SDS011;6914;53.552;9.908;2023-05-01T13:13:23;2.10;;;1.90;;
13683;SDS011;6914;53.552;9.908;2023-05-01T13:15:51;1.80;;;1.70;;
13683;SDS011;6914;53.552;9.908;2023-05-01T13:18:23;1.90;;;1.80;;
13683;SDS011;6914;53.552;9.908;2023-05-01T13:20:51;3.50;;;2.20;;
13683;SDS011;6914;53.552;9.908;2023-05-01T13:23:21;5.13;;;1.47;;
13683;SDS011;6914;53.552;9.908;2023-05-01T13:25:54;2.53;;;2.33;;
13683;SDS011;6914;53.552;9.908;2023-05-01T13:28:22;2.43;;;1.73;;
13683;SDS011;6914;53.552;9.908;2023-05-01T13:30:49;1.90;;;1.70;;
13683;SDS011;6914;53.552;9.908;2023-05-01T13:33:24;2.70;;;1.90;;
13683;SDS011;6914;53.552;9.908;2023-05-01T13:35:52;1.53;;;1.43;;
13683;SDS011;6914;53.552;9.908;2023-05-01T13:38:21;2.20;;;1.90;;
13683;SDS011;6914;53.552;9.908;2023-05-01T13:40:49;3.23;;;2.03;;
13683;SDS011;6914;53.552;9.908;2023-05-01T13:43:15;2.00;;;1.90;;
13683;SDS011;6914;53.552;9.908;2023-05-01T13:45:46;2.20;;;1.67;;
13683;SDS011;6914;53.552;9.908;2023-05-01T13:48:14;2.53;;;1.50;;
13683;SDS011;6914;53.552;9.908;2023-05-01T13:50:48;7.70;;;1.63;;
13683;SDS011;6914;53.552;9.908;2023-05-01T13:53:15;2.80;;;1.83;;
13683;SDS011;6914;53.552;9.908;2023-05-01T13:55:42;3.17;;;1.70;;
13683;SDS011;6914;53.552;9.908;2023-05-01T13:58:09;5.03;;;1.67;;
13683;SDS011;6914;53.552;9.908;2023-05-01T14:00:36;2.07;;;1.90;;
13683;SDS011;6914;53.552;9.908;2023-05-01T14:03:04;5.43;;;1.93;;
13683;SDS011;6914;53.552;9.908;2023-05-01T14:05:35;4.93;;;1.83;;
13683;SDS011;6914;53.552;9.908;2023-05-01T14:08:07;2.57;;;1.50;;
13683;SDS011;6914;53.552;9.908;2023-05-01T14:10:34;1.57;;;1.30;;
13683;SDS011;6914;53.552;9.908;2023-05-01T14:13:01;8.03;;;1.70;;
13683;SDS011;6914;53.552;9.908;2023-05-01T14:15:30;1.90;;;1.80;;
13683;SDS011;6914;53.552;9.908;2023-05-01T14:18:02;2.60;;;2.27;;
13683;SDS011;6914;53.552;9.908;2023-05-01T14:20:30;7.03;;;2.13;;
13683;SDS011;6914;53.552;9.908;2023-05-01T14:22:57;4.70;;;1.87;;
13683;SDS011;6914;53.552;9.908;2023-05-01T14:25:27;2.17;;;1.97;;
13683;SDS011;6914;53.552;9.908;2023-05-01T14:27:55;4.80;;;2.27;;
13683;SDS011;6914;53.552;9.908;2023-05-01T14:30:25;1.97;;;1.80;;
13683;SDS011;6914;53.552;9.908;2023-05-01T14:32:54;2.03;;;1.93;;
13683;SDS011;6914;53.552;9.908;2023-05-01T14:35:22;2.07;;;1.97;;
13683;SDS011;6914;53.552;9.908;2023-05-01T14:37:49;3.23;;;1.57;;
13683;SDS011;6914;53.552;9.908;2023-05-01T14:40:17;7.07;;;2.50;;
13683;SDS011;6914;53.552;9.908;2023-05-01T14:42:52;4.20;;;2.43;;
13683;SDS011;6914;53.552;9.908;2023-05-01T14:45:22;3.30;;;2.90;;
13683;SDS011;6914;53.552;9.908;2023-05-01T14:47:49;3.43;;;2.03;;
13683;SDS011;6914;53.552;9.908;2023-05-01T14:50:17;4.03;;;1.97;;
13683;SDS011;6914;53.552;9.908;2023-05-01T14:52:52;1.90;;;1.80;;
13683;SDS011;6914;53.552;9.908;2023-05-01T14:55:24;2.53;;;1.70;;
13683;SDS011;6914;53.552;9.908;2023-05-01T14:57:54;2.37;;;1.57;;
13683;SDS011;6914;53.552;9.908;2023-05-01T15:00:22;3.00;;;1.80;;
13683;SDS011;6914;53.552;9.908;2023-05-01T15:02:50;6.20;;;1.80;;
13683;SDS011;6914;53.552;9.908;2023-05-01T15:05:17;4.53;;;1.70;;
13683;SDS011;6914;53.552;9.908;2023-05-01T15:07:44;2.80;;;1.90;;
13683;SDS011;6914;53.552;9.908;2023-05-01T15:10:11;2.37;;;2.17;;
13683;SDS011;6914;53.552;9.908;2023-05-01T15:12:39;2.93;;;1.70;;
13683;SDS011;6914;53.552;9.908;2023-05-01T15:15:08;5.03;;;2.33;;
13683;SDS011;6914;53.552;9.908;2023-05-01T15:17:35;5.10;;;2.03;;
13683;SDS011;6914;53.552;9.908;2023-05-01T15:20:03;5.23;;;2.40;;
13683;SDS011;6914;53.552;9.908;2023-05-01T15:22:31;4.17;;;2.40;;
13683;SDS011;6914;53.552;9.908;2023-05-01T15:24:58;2.50;;;2.30;;
13683;SDS011;6914;53.552;9.908;2023-05-01T15:27:25;2.93;;;2.60;;